EDHL/LBC METAR and TAF weather

Enter ICAO airport designator
Station Type Date Time Source
EDHL METAR 2020/02/19 14:20 UTC NOAA

EDHL 191420Z 27010KT 230V320 9999 SCT025 08/03 Q1011


Station Type Date Time Source
EDHL Decoded METAR 2020/02/19 14:20 UTC NOAA

Luebeck-Blankensee, Germany (EDHL) 53-49N 010-42E 15M
Feb 19, 2020 - 09:20 AM EST / 2020.02.19 1420 UTC
Wind: from the W (270 degrees) at 12 MPH (10 KT) (direction variable):0
Visibility: greater than 7 mile(s):0
Sky conditions: partly cloudy
Temperature: 46 F (8 C)
Dew Point: 37 F (3 C)
Relative Humidity: 70%
Pressure (altimeter): 29.85 in. Hg (1011 hPa)
ob: EDHL 191420Z 27010KT 230V320 9999 SCT025 08/03 Q1011
cycle: 14

Station Type Date Time Source
EDHL TAF 2010/02/22 14:20 UTC NOAA

METAR EDHL 221420Z 15004KT 110V180 9999 FEW039 SCT120 05/02 Q0990
RMK X

Example: see airport list